MYGF METAR and TAF weather

Enter ICAO airport designator
Station Type Date Time Source
MYGF METAR 2021/10/22 19:00 UTC NOAA

MYGF 221900Z AUTO 01005KT //// R06///// // FEW024 BKN033 //////CB 24/23 A2998


Station Type Date Time Source
MYGF Decoded METAR 2021/10/22 19:00 UTC NOAA

Freeport, Grand Bahama, Bahamas, The (MYGF) 26-33N 078-42W 11M
Oct 22, 2021 - 03:00 PM EDT / 2021.10.22 1900 UTC
Wind: from the N (010 degrees) at 6 MPH (5 KT):0
Sky conditions: mostly cloudy
Weather: Cumulonimbus clouds observed
Temperature: 75 F (24 C)
Dew Point: 73 F (23 C)
Relative Humidity: 94%
Pressure (altimeter): 29.98 in. Hg (1015 hPa)
ob: MYGF 221900Z AUTO 01005KT //// R06///// // FEW024 BKN033 //////CB 24/23 A2998
cycle: 19

Station Type Date Time Source
MYGF TAF 2021/10/22 18:29 UTC NOAA

TAF MYGF 221700Z 2218/2318 11008KT 9999 TSRA VCSH SCT015CB SCT022 BKN090 PROB30
TEMPO 2300/2306 9000 TSRA SCT015CB BKN035

Example: see airport list